createdAt,value
2023-02-08T01:32:29.110Z,102751.38
2023-02-08T01:35:30.703Z,102760.10
2023-02-08T01:38:34.700Z,102761.36
2023-02-08T01:41:38.724Z,102767.55
2023-02-08T01:45:17.685Z,102774.85
2023-02-08T01:48:43.692Z,102786.05
2023-02-08T01:51:47.724Z,102791.48
2023-02-08T01:54:53.741Z,102795.48
2023-02-08T01:57:55.758Z,102795.13
2023-02-08T02:01:02.761Z,102791.67
2023-02-08T02:04:07.217Z,102790.72
2023-02-08T02:07:10.763Z,102796.65
2023-02-08T02:10:17.710Z,102796.64
2023-02-08T02:13:27.763Z,102799.38
2023-02-08T02:16:29.781Z,102805.10
2023-02-08T02:19:38.813Z,102804.29
2023-02-08T02:22:46.817Z,102803.27
2023-02-08T02:26:01.014Z,102808.18
2023-02-08T02:29:18.768Z,102813.92
2023-02-08T02:32:46.787Z,102811.61
2023-02-08T02:36:11.831Z,102809.52
2023-02-08T02:39:35.774Z,102819.34
2023-02-08T02:43:20.928Z,102817.80
2023-02-08T02:46:49.728Z,102815.88
2023-02-08T02:50:05.857Z,102822.74
2023-02-08T02:53:12.837Z,102828.52
2023-02-08T02:56:19.891Z,102825.70
2023-02-08T02:59:28.811Z,102824.90
2023-02-08T03:02:30.846Z,102829.30
2023-02-08T03:05:35.858Z,102831.81
2023-02-08T03:08:58.829Z,102835.48
2023-02-08T03:12:08.820Z,102843.13
2023-02-08T03:15:35.958Z,102848.98
2023-02-08T03:19:02.850Z,102851.08
2023-02-08T03:22:10.883Z,102854.98
2023-02-08T03:25:21.847Z,102856.25
2023-02-08T03:28:41.845Z,102857.44
2023-02-08T03:31:48.985Z,102859.66
2023-02-08T03:35:26.891Z,102862.89
2023-02-08T03:38:35.868Z,102862.16
2023-02-08T03:41:43.936Z,102872.46
2023-02-08T03:44:52.996Z,102873.90
2023-02-08T03:47:55.005Z,102872.08
2023-02-08T03:51:02.957Z,102874.15
2023-02-08T03:54:04.944Z,102880.19
2023-02-08T03:57:14.926Z,102883.82
2023-02-08T04:00:24.911Z,102891.39
2023-02-08T04:03:34.953Z,102898.52
2023-02-08T04:06:36.959Z,102903.52
2023-02-08T04:09:39.950Z,102908.54
2023-02-08T04:12:42.104Z,102909.17
2023-02-08T04:15:43.987Z,102919.48
2023-02-08T04:18:46.022Z,102927.30
2023-02-08T04:21:49.009Z,102928.14
2023-02-08T04:24:52.982Z,102933.40
2023-02-08T04:27:54.994Z,102939.70
2023-02-08T04:30:57.126Z,102941.96
2023-02-08T04:33:59.970Z,102947.14
2023-02-08T04:37:04.005Z,102946.66
2023-02-08T04:40:05.971Z,102942.68
2023-02-08T04:43:00.997Z,102946.95
2023-02-08T04:45:43.084Z,102947.88
2023-02-08T04:48:33.020Z,102953.27
2023-02-08T04:51:21.001Z,102961.80
2023-02-08T04:54:16.157Z,102960.91
2023-02-08T04:57:19.209Z,102960.32
2023-02-08T05:00:26.144Z,102959.36
2023-02-08T05:03:29.066Z,102963.54
2023-02-08T05:06:31.988Z,102966.11
2023-02-08T05:09:34.441Z,102967.59
2023-02-08T05:12:39.070Z,102966.73
2023-02-08T05:15:42.526Z,102972.48
2023-02-08T05:18:46.063Z,102972.61
2023-02-08T05:21:48.093Z,102978.86
2023-02-08T05:24:51.057Z,102984.99
2023-02-08T05:27:54.132Z,102994.48
2023-02-08T05:30:56.146Z,102997.39
2023-02-08T05:33:58.180Z,103002.08
2023-02-08T05:37:00.050Z,103010.20
2023-02-08T05:40:03.118Z,103007.18
2023-02-08T05:43:06.104Z,103013.88
2023-02-08T05:46:08.075Z,103012.95
2023-02-08T05:49:11.331Z,103020.00
2023-02-08T05:52:14.087Z,103017.95
2023-02-08T05:55:17.282Z,103025.21
2023-02-08T05:58:20.112Z,103027.73
2023-02-08T06:01:27.225Z,103028.95
2023-02-08T06:04:30.124Z,103027.83
2023-02-08T06:07:32.125Z,103030.66
2023-02-08T06:10:34.168Z,103029.52
2023-02-08T06:13:36.229Z,103037.12
2023-02-08T06:16:39.178Z,103039.84
2023-02-08T06:19:43.165Z,103033.01
2023-02-08T06:22:52.146Z,103034.52
2023-02-08T06:25:49.201Z,103030.73
2023-02-08T06:29:13.245Z,103032.56
2023-02-08T06:32:18.050Z,103033.09
2023-02-08T06:35:23.393Z,103026.48
2023-02-08T06:38:27.215Z,103023.29
2023-02-08T06:41:32.295Z,103024.57
2023-02-08T06:44:34.452Z,103027.29
2023-02-08T06:47:42.465Z,103019.14
2023-02-08T06:50:45.172Z,103014.98
2023-02-08T06:53:47.755Z,103016.56
2023-02-08T06:56:49.252Z,103015.27
2023-02-08T06:59:51.380Z,103015.16
2023-02-08T10:24:14.978Z,102949.08
2023-02-08T10:27:25.018Z,102951.35
2023-02-08T10:30:36.520Z,102946.00
2023-02-08T10:34:08.669Z,102947.15
2023-02-08T10:37:10.032Z,102951.66
2023-02-08T10:40:13.120Z,102947.23
2023-02-08T10:43:37.104Z,102948.78
2023-02-08T10:46:51.080Z,102948.42
2023-02-08T10:50:02.669Z,102953.38
2023-02-08T10:53:04.094Z,102949.15
2023-02-08T10:56:04.077Z,102944.55
2023-02-08T10:59:08.092Z,102949.61
2023-02-08T11:02:09.063Z,102948.38
2023-02-08T11:05:12.153Z,102947.27
2023-02-08T11:08:26.219Z,102955.13
2023-02-08T11:11:26.559Z,102958.65
2023-02-08T11:14:45.471Z,102955.15
2023-02-08T11:17:49.104Z,102954.98
2023-02-08T11:20:52.143Z,102952.12
2023-02-08T11:23:58.700Z,102957.73
2023-02-08T11:27:00.167Z,102967.77
2023-02-08T11:30:02.132Z,102965.64
2023-02-08T11:33:22.173Z,102962.05
2023-02-08T11:36:29.057Z,102966.92
2023-02-08T11:39:35.180Z,102968.00
2023-02-08T11:42:38.194Z,102964.64
2023-02-08T11:45:42.558Z,102970.16
2023-02-08T11:48:57.245Z,102971.94
2023-02-08T11:51:59.150Z,102966.52
2023-02-08T11:55:01.354Z,102963.86
2023-02-08T11:58:15.169Z,102965.90
2023-02-08T12:01:30.238Z,102965.41
2023-02-08T12:04:31.296Z,102961.38
2023-02-08T12:07:44.175Z,102958.06
2023-02-08T12:10:56.216Z,102963.96
2023-02-08T12:14:03.195Z,102961.77
2023-02-08T12:17:06.226Z,102961.54
2023-02-08T12:20:22.186Z,102962.66
2023-02-08T12:23:32.233Z,102961.25
2023-02-08T12:26:41.179Z,102964.73
2023-02-08T12:29:57.260Z,102963.23
2023-02-08T12:33:19.344Z,102968.69
2023-02-08T12:36:30.463Z,102966.45
2023-02-08T12:40:02.432Z,102967.41
2023-02-08T12:43:02.529Z,102962.67
2023-02-08T12:46:39.318Z,102966.23
2023-02-08T12:50:02.423Z,102967.88
2023-02-08T12:53:09.291Z,102963.02
2023-02-08T12:56:22.318Z,102957.10
2023-02-08T12:59:38.331Z,102960.94
2023-02-08T13:02:52.301Z,102962.17
2023-02-08T13:06:02.141Z,102958.41
2023-02-08T13:09:59.318Z,102958.40
2023-02-08T13:13:03.294Z,102957.52
2023-02-08T13:16:16.453Z,102959.41
2023-02-08T13:20:00.643Z,102955.91
2023-02-08T13:23:02.433Z,102951.26
2023-02-08T13:26:05.316Z,102949.77
2023-02-08T13:29:11.462Z,102944.95
2023-02-08T13:32:15.295Z,102943.08
2023-02-08T13:35:33.365Z,102937.70
2023-02-08T13:38:43.328Z,102938.23
2023-02-08T13:41:45.321Z,102945.14
2023-02-08T13:44:51.364Z,102941.75
2023-02-08T13:48:01.731Z,102934.14
2023-02-08T13:51:07.371Z,102931.75
2023-02-08T13:54:09.248Z,102925.95
2023-02-08T13:57:13.479Z,102926.98
2023-02-08T14:00:49.516Z,102929.45
2023-02-08T14:03:53.545Z,102926.16
2023-02-08T14:07:06.644Z,102929.17
2023-02-08T14:10:21.621Z,102937.30
2023-02-08T14:13:52.523Z,102933.98
2023-02-08T14:16:57.391Z,102934.33
2023-02-08T14:19:59.823Z,102933.88
2023-02-08T14:23:15.268Z,102934.38
2023-02-08T14:26:21.427Z,102937.34
2023-02-08T14:29:39.054Z,102944.16
2023-02-08T14:32:44.620Z,102945.17
2023-02-08T14:35:47.792Z,102946.55
2023-02-08T14:39:39.442Z,102941.31
2023-02-08T14:43:08.461Z,102945.23
2023-02-08T14:46:51.764Z,102943.78
2023-02-08T14:49:53.567Z,102948.96
2023-02-08T14:53:02.685Z,102953.05
2023-02-08T14:56:16.853Z,102957.80
2023-02-08T14:59:28.525Z,102953.94
2023-02-08T15:02:37.504Z,102955.30
2023-02-08T15:05:44.732Z,102953.75
2023-02-08T15:08:49.308Z,102952.89
2023-02-08T15:11:54.546Z,102952.02
2023-02-08T15:14:56.478Z,102951.38
2023-02-08T15:17:58.534Z,102949.81
2023-02-08T15:20:59.570Z,102951.92
2023-02-08T15:24:14.069Z,102949.80
2023-02-08T15:27:14.598Z,102950.66
2023-02-08T15:30:16.484Z,102951.15
2023-02-08T15:37:31.182Z,102950.23
2023-02-08T15:40:43.964Z,102946.58
2023-02-08T15:43:47.544Z,102945.77
2023-02-08T15:46:49.564Z,102944.50
2023-02-08T15:49:56.584Z,102953.18
2023-02-08T15:52:58.548Z,102959.72
2023-02-08T15:56:08.175Z,102963.67
2023-02-08T15:59:10.633Z,102968.07
2023-02-08T16:02:10.597Z,102970.70
2023-02-08T16:05:12.573Z,102971.89
2023-02-08T19:21:36.946Z,102919.34
2023-02-08T19:24:38.334Z,102916.17
2023-02-08T19:27:39.365Z,102915.23
2023-02-08T19:30:39.391Z,102915.17
2023-02-08T19:33:39.330Z,102916.12
2023-02-08T19:36:41.411Z,102914.23
2023-02-08T19:39:44.503Z,102916.45
2023-02-08T19:42:46.405Z,102914.48
2023-02-08T19:45:50.445Z,102911.88
2023-02-08T19:48:50.347Z,102923.07
2023-02-08T19:51:54.002Z,102928.76
2023-02-08T19:54:55.388Z,102925.69
2023-02-08T19:58:02.918Z,102919.40
2023-02-08T20:01:03.376Z,102910.40
2023-02-08T20:04:05.293Z,102907.65
2023-02-08T20:07:06.394Z,102906.52
2023-02-08T20:10:06.470Z,102898.50
2023-02-08T20:13:07.440Z,102896.75
2023-02-08T20:16:12.543Z,102897.56
2023-02-08T20:19:17.702Z,102895.43
2023-02-08T20:22:18.701Z,102893.48
2023-02-08T20:25:29.636Z,102890.20
2023-02-08T20:28:32.578Z,102888.48
2023-02-08T20:31:38.477Z,102881.96
2023-02-08T20:34:53.996Z,102879.95
2023-02-08T20:38:01.482Z,102880.77
2023-02-08T20:41:02.445Z,102880.55
2023-02-08T20:44:05.482Z,102875.05
2023-02-08T20:47:07.450Z,102873.70
2023-02-08T20:50:18.170Z,102868.02
2023-02-08T20:53:20.602Z,102868.33
2023-02-08T20:56:28.072Z,102871.47
2023-02-08T20:59:31.538Z,102866.88
2023-02-08T21:02:36.709Z,102863.77
2023-02-08T21:05:38.769Z,102866.42
2023-02-08T21:09:04.867Z,102864.36
2023-02-08T21:12:07.585Z,102864.83
2023-02-08T21:15:08.820Z,102861.98
2023-02-08T21:18:13.322Z,102869.91
2023-02-08T21:21:13.535Z,102861.67
2023-02-08T21:24:19.009Z,102858.02
2023-02-08T21:27:24.728Z,102857.48
2023-02-08T21:30:27.679Z,102857.00
2023-02-08T21:33:29.851Z,102863.43
2023-02-08T21:36:34.529Z,102870.28
2023-02-08T21:39:36.543Z,102867.19
2023-02-08T21:42:40.194Z,102874.49
2023-02-08T21:45:43.645Z,102870.41
2023-02-08T21:49:02.545Z,102870.09
2023-02-08T21:52:22.562Z,102877.39
2023-02-08T21:55:29.088Z,102881.95
2023-02-08T21:58:36.149Z,102874.38
2023-02-08T22:01:40.183Z,102866.66
2023-02-08T22:05:08.554Z,102866.36
2023-02-08T22:08:23.865Z,102863.82
2023-02-08T22:14:58.594Z,102861.63
2023-02-08T22:18:11.077Z,102857.45
2023-02-08T22:21:15.907Z,102853.17
2023-02-08T22:24:18.912Z,102847.38
2023-02-08T22:27:18.639Z,102846.15
2023-02-08T22:30:22.831Z,102845.67
2023-02-08T22:33:24.731Z,102846.46
2023-02-08T22:36:24.694Z,102837.30
2023-02-08T22:39:25.650Z,102833.48
2023-02-08T22:42:28.662Z,102836.40
2023-02-08T22:45:29.660Z,102833.33
2023-02-08T22:48:30.040Z,102827.38
2023-02-08T22:51:30.676Z,102820.98
2023-02-08T22:54:32.670Z,102812.35
2023-02-08T22:57:33.690Z,102812.09
2023-02-08T23:00:33.662Z,102808.80
2023-02-08T23:03:33.652Z,102810.05
2023-02-08T23:06:34.749Z,102804.55
2023-02-08T23:09:37.682Z,102808.42
2023-02-08T23:12:40.951Z,102806.63
2023-02-08T23:15:41.744Z,102806.39
2023-02-08T23:18:42.704Z,102803.39
2023-02-08T23:21:42.663Z,102803.67
2023-02-08T23:24:45.957Z,102805.87
2023-02-08T23:27:38.821Z,102809.52
2023-02-08T23:30:38.756Z,102806.48
2023-02-08T23:33:38.711Z,102799.35
2023-02-08T23:36:38.789Z,102797.90
2023-02-08T23:39:38.780Z,102796.10
2023-02-08T23:42:39.723Z,102801.23
2023-02-08T23:45:39.729Z,102795.10
2023-02-08T23:48:39.752Z,102789.38
2023-02-08T23:51:39.793Z,102782.27
2023-02-08T23:54:40.901Z,102776.22
2023-02-08T23:57:48.765Z,102771.52
